sensor_id;sensor_type;location;lat;lon;timestamp;temperature;humidity
14850;DHT22;7517;48.400;11.770;2023-11-22T00:00:05;12.80;78.80
14850;DHT22;7517;48.400;11.770;2023-11-22T00:02:33;12.80;78.50
14850;DHT22;7517;48.400;11.770;2023-11-22T00:05:02;12.80;78.80
14850;DHT22;7517;48.400;11.770;2023-11-22T00:07:30;12.80;78.80
14850;DHT22;7517;48.400;11.770;2023-11-22T00:09:58;12.80;78.70
14850;DHT22;7517;48.400;11.770;2023-11-22T00:12:27;12.80;78.40
14850;DHT22;7517;48.400;11.770;2023-11-22T00:15:02;12.90;78.30
14850;DHT22;7517;48.400;11.770;2023-11-22T00:17:31;12.90;78.40
14850;DHT22;7517;48.400;11.770;2023-11-22T00:20:00;12.80;78.20
14850;DHT22;7517;48.400;11.770;2023-11-22T00:22:31;12.90;78.20
14850;DHT22;7517;48.400;11.770;2023-11-22T00:24:58;12.80;78.20
14850;DHT22;7517;48.400;11.770;2023-11-22T00:27:27;12.80;78.00
14850;DHT22;7517;48.400;11.770;2023-11-22T00:29:55;12.80;78.00
14850;DHT22;7517;48.400;11.770;2023-11-22T00:32:22;12.80;78.00
14850;DHT22;7517;48.400;11.770;2023-11-22T00:34:51;12.80;78.10
14850;DHT22;7517;48.400;11.770;2023-11-22T00:37:20;12.80;78.00
14850;DHT22;7517;48.400;11.770;2023-11-22T00:39:47;12.70;77.80
14850;DHT22;7517;48.400;11.770;2023-11-22T00:42:15;12.70;77.90
14850;DHT22;7517;48.400;11.770;2023-11-22T00:44:45;12.70;78.10
14850;DHT22;7517;48.400;11.770;2023-11-22T00:47:13;12.60;77.80
14850;DHT22;7517;48.400;11.770;2023-11-22T00:49:42;12.60;77.60
14850;DHT22;7517;48.400;11.770;2023-11-22T00:52:09;12.50;77.50
14850;DHT22;7517;48.400;11.770;2023-11-22T00:54:38;12.50;77.50
14850;DHT22;7517;48.400;11.770;2023-11-22T00:57:06;12.40;77.20
14850;DHT22;7517;48.400;11.770;2023-11-22T00:59:34;12.40;77.40
14850;DHT22;7517;48.400;11.770;2023-11-22T01:02:01;12.30;77.40
14850;DHT22;7517;48.400;11.770;2023-11-22T01:04:30;12.30;77.30
14850;DHT22;7517;48.400;11.770;2023-11-22T01:06:59;12.20;77.10
14850;DHT22;7517;48.400;11.770;2023-11-22T01:09:26;12.20;77.10
14850;DHT22;7517;48.400;11.770;2023-11-22T01:11:56;12.10;77.10
14850;DHT22;7517;48.400;11.770;2023-11-22T01:14:23;12.10;76.70
14850;DHT22;7517;48.400;11.770;2023-11-22T01:16:51;12.00;76.50
14850;DHT22;7517;48.400;11.770;2023-11-22T01:19:19;12.00;76.00
14850;DHT22;7517;48.400;11.770;2023-11-22T01:21:46;11.90;75.60
14850;DHT22;7517;48.400;11.770;2023-11-22T01:24:14;11.80;75.20
14850;DHT22;7517;48.400;11.770;2023-11-22T01:26:42;11.70;74.70
14850;DHT22;7517;48.400;11.770;2023-11-22T01:29:10;11.60;74.40
14850;DHT22;7517;48.400;11.770;2023-11-22T01:31:39;11.50;74.20
14850;DHT22;7517;48.400;11.770;2023-11-22T01:34:07;11.40;74.00
14850;DHT22;7517;48.400;11.770;2023-11-22T01:36:34;11.30;73.80
14850;DHT22;7517;48.400;11.770;2023-11-22T01:39:02;11.20;73.50
14850;DHT22;7517;48.400;11.770;2023-11-22T01:41:29;11.10;73.50
14850;DHT22;7517;48.400;11.770;2023-11-22T01:43:56;11.00;74.30
14850;DHT22;7517;48.400;11.770;2023-11-22T01:46:25;11.00;74.10
14850;DHT22;7517;48.400;11.770;2023-11-22T01:48:53;10.90;73.90
14850;DHT22;7517;48.400;11.770;2023-11-22T01:51:21;10.80;74.00
14850;DHT22;7517;48.400;11.770;2023-11-22T01:53:52;10.80;74.00
14850;DHT22;7517;48.400;11.770;2023-11-22T01:56:23;10.80;73.90
14850;DHT22;7517;48.400;11.770;2023-11-22T01:58:54;10.70;73.80
14850;DHT22;7517;48.400;11.770;2023-11-22T02:01:24;10.60;73.80
14850;DHT22;7517;48.400;11.770;2023-11-22T02:03:52;10.60;74.00
14850;DHT22;7517;48.400;11.770;2023-11-22T02:06:19;10.50;73.70
14850;DHT22;7517;48.400;11.770;2023-11-22T02:08:48;10.50;73.80
14850;DHT22;7517;48.400;11.770;2023-11-22T02:11:17;10.40;74.00
14850;DHT22;7517;48.400;11.770;2023-11-22T02:13:47;10.30;74.00
14850;DHT22;7517;48.400;11.770;2023-11-22T02:16:15;10.30;74.30
14850;DHT22;7517;48.400;11.770;2023-11-22T02:18:45;10.20;74.20
14850;DHT22;7517;48.400;11.770;2023-11-22T02:21:15;10.20;74.50
14850;DHT22;7517;48.400;11.770;2023-11-22T02:23:44;10.10;74.80
14850;DHT22;7517;48.400;11.770;2023-11-22T02:26:12;10.10;74.70
14850;DHT22;7517;48.400;11.770;2023-11-22T02:28:41;10.00;74.70
14850;DHT22;7517;48.400;11.770;2023-11-22T02:31:08;10.00;74.60
14850;DHT22;7517;48.400;11.770;2023-11-22T02:33:35;9.90;74.80
14850;DHT22;7517;48.400;11.770;2023-11-22T02:36:03;9.90;74.90
14850;DHT22;7517;48.400;11.770;2023-11-22T02:38:31;9.90;74.70
14850;DHT22;7517;48.400;11.770;2023-11-22T02:41:01;9.80;74.60
14850;DHT22;7517;48.400;11.770;2023-11-22T02:43:29;9.80;74.70
14850;DHT22;7517;48.400;11.770;2023-11-22T02:45:57;9.70;75.70
14850;DHT22;7517;48.400;11.770;2023-11-22T02:48:24;9.60;75.10
14850;DHT22;7517;48.400;11.770;2023-11-22T02:50:51;9.60;75.30
14850;DHT22;7517;48.400;11.770;2023-11-22T02:53:20;9.60;75.70
14850;DHT22;7517;48.400;11.770;2023-11-22T02:55:48;9.60;75.80
14850;DHT22;7517;48.400;11.770;2023-11-22T02:58:16;9.60;75.70
14850;DHT22;7517;48.400;11.770;2023-11-22T03:00:44;9.60;75.40
14850;DHT22;7517;48.400;11.770;2023-11-22T03:03:11;9.60;76.20
14850;DHT22;7517;48.400;11.770;2023-11-22T03:05:38;9.50;75.60
14850;DHT22;7517;48.400;11.770;2023-11-22T03:08:06;9.60;75.50
14850;DHT22;7517;48.400;11.770;2023-11-22T03:10:35;9.60;75.70
14850;DHT22;7517;48.400;11.770;2023-11-22T03:13:02;9.50;75.50
14850;DHT22;7517;48.400;11.770;2023-11-22T03:15:32;9.50;75.40
14850;DHT22;7517;48.400;11.770;2023-11-22T03:17:59;9.50;75.20
14850;DHT22;7517;48.400;11.770;2023-11-22T03:20:27;9.50;75.30
14850;DHT22;7517;48.400;11.770;2023-11-22T03:22:54;9.50;75.20
14850;DHT22;7517;48.400;11.770;2023-11-22T03:25:21;9.60;75.30
14850;DHT22;7517;48.400;11.770;2023-11-22T03:27:48;9.50;76.10
14850;DHT22;7517;48.400;11.770;2023-11-22T03:30:17;9.50;75.60
14850;DHT22;7517;48.400;11.770;2023-11-22T03:32:46;9.50;75.50
14850;DHT22;7517;48.400;11.770;2023-11-22T03:35:15;9.50;75.20
14850;DHT22;7517;48.400;11.770;2023-11-22T03:37:43;9.50;75.20
14850;DHT22;7517;48.400;11.770;2023-11-22T03:40:11;9.50;75.50
14850;DHT22;7517;48.400;11.770;2023-11-22T03:42:39;9.50;75.20
14850;DHT22;7517;48.400;11.770;2023-11-22T03:45:08;9.50;75.30
14850;DHT22;7517;48.400;11.770;2023-11-22T03:47:38;9.50;75.40
14850;DHT22;7517;48.400;11.770;2023-11-22T03:50:07;9.50;75.60
14850;DHT22;7517;48.400;11.770;2023-11-22T03:52:35;9.50;75.30
14850;DHT22;7517;48.400;11.770;2023-11-22T03:55:03;9.50;75.50
14850;DHT22;7517;48.400;11.770;2023-11-22T03:57:31;9.50;75.40
14850;DHT22;7517;48.400;11.770;2023-11-22T03:59:58;9.50;75.40
14850;DHT22;7517;48.400;11.770;2023-11-22T04:02:25;9.40;75.50
14850;DHT22;7517;48.400;11.770;2023-11-22T04:04:54;9.50;75.70
14850;DHT22;7517;48.400;11.770;2023-11-22T04:07:24;9.40;75.50
14850;DHT22;7517;48.400;11.770;2023-11-22T04:09:51;9.50;75.30
14850;DHT22;7517;48.400;11.770;2023-11-22T04:12:19;9.50;75.20
14850;DHT22;7517;48.400;11.770;2023-11-22T04:14:46;9.50;75.20
14850;DHT22;7517;48.400;11.770;2023-11-22T04:17:13;9.50;75.10
14850;DHT22;7517;48.400;11.770;2023-11-22T04:19:41;9.40;75.30
14850;DHT22;7517;48.400;11.770;2023-11-22T04:22:08;9.50;75.30
14850;DHT22;7517;48.400;11.770;2023-11-22T04:24:37;9.50;74.90
14850;DHT22;7517;48.400;11.770;2023-11-22T04:27:05;9.50;74.70
14850;DHT22;7517;48.400;11.770;2023-11-22T04:29:32;9.50;74.70
14850;DHT22;7517;48.400;11.770;2023-11-22T04:32:00;9.50;74.90
14850;DHT22;7517;48.400;11.770;2023-11-22T04:34:28;9.50;75.20
14850;DHT22;7517;48.400;11.770;2023-11-22T04:36:55;9.40;75.20
14850;DHT22;7517;48.400;11.770;2023-11-22T04:39:22;9.50;75.70
14850;DHT22;7517;48.400;11.770;2023-11-22T04:41:51;9.50;74.90
14850;DHT22;7517;48.400;11.770;2023-11-22T04:44:18;9.40;75.10
14850;DHT22;7517;48.400;11.770;2023-11-22T04:46:45;9.50;75.10
14850;DHT22;7517;48.400;11.770;2023-11-22T04:49:13;9.50;75.00
14850;DHT22;7517;48.400;11.770;2023-11-22T04:51:40;9.50;74.60
14850;DHT22;7517;48.400;11.770;2023-11-22T04:54:08;9.50;74.40
14850;DHT22;7517;48.400;11.770;2023-11-22T04:56:36;9.50;74.50
14850;DHT22;7517;48.400;11.770;2023-11-22T04:59:05;9.50;74.50
14850;DHT22;7517;48.400;11.770;2023-11-22T05:01:33;9.40;74.70
14850;DHT22;7517;48.400;11.770;2023-11-22T05:04:00;9.50;74.90
14850;DHT22;7517;48.400;11.770;2023-11-22T05:06:28;9.50;74.90
14850;DHT22;7517;48.400;11.770;2023-11-22T05:08:55;9.50;75.10
14850;DHT22;7517;48.400;11.770;2023-11-22T05:11:23;9.60;74.40
14850;DHT22;7517;48.400;11.770;2023-11-22T05:13:50;9.50;74.20
14850;DHT22;7517;48.400;11.770;2023-11-22T05:16:19;9.50;74.10
14850;DHT22;7517;48.400;11.770;2023-11-22T05:18:46;9.50;73.90
14850;DHT22;7517;48.400;11.770;2023-11-22T05:21:13;9.50;74.10
14850;DHT22;7517;48.400;11.770;2023-11-22T05:23:41;9.40;74.40
14850;DHT22;7517;48.400;11.770;2023-11-22T05:26:08;9.50;74.30
14850;DHT22;7517;48.400;11.770;2023-11-22T05:28:36;9.50;74.20
14850;DHT22;7517;48.400;11.770;2023-11-22T05:31:03;9.50;74.20
14850;DHT22;7517;48.400;11.770;2023-11-22T05:33:32;9.40;73.90
14850;DHT22;7517;48.400;11.770;2023-11-22T05:35:59;9.40;73.90
14850;DHT22;7517;48.400;11.770;2023-11-22T05:38:27;9.40;74.00
14850;DHT22;7517;48.400;11.770;2023-11-22T05:40:54;9.40;74.00
14850;DHT22;7517;48.400;11.770;2023-11-22T05:43:21;9.40;74.30
14850;DHT22;7517;48.400;11.770;2023-11-22T05:45:52;9.40;74.30
14850;DHT22;7517;48.400;11.770;2023-11-22T05:48:19;9.40;74.10
14850;DHT22;7517;48.400;11.770;2023-11-22T05:50:48;9.40;74.00
14850;DHT22;7517;48.400;11.770;2023-11-22T05:53:16;9.40;74.50
14850;DHT22;7517;48.400;11.770;2023-11-22T05:55:45;9.30;73.70
14850;DHT22;7517;48.400;11.770;2023-11-22T05:58:13;9.40;73.80
14850;DHT22;7517;48.400;11.770;2023-11-22T06:00:42;9.20;73.70
14850;DHT22;7517;48.400;11.770;2023-11-22T06:03:10;9.30;73.90
14850;DHT22;7517;48.400;11.770;2023-11-22T06:05:38;9.30;74.00
14850;DHT22;7517;48.400;11.770;2023-11-22T06:08:07;9.20;73.90
14850;DHT22;7517;48.400;11.770;2023-11-22T06:10:34;9.30;74.10
14850;DHT22;7517;48.400;11.770;2023-11-22T06:13:03;9.30;73.90
14850;DHT22;7517;48.400;11.770;2023-11-22T06:15:31;9.20;74.10
14850;DHT22;7517;48.400;11.770;2023-11-22T06:17:58;9.20;74.50
14850;DHT22;7517;48.400;11.770;2023-11-22T06:20:25;9.20;74.40
14850;DHT22;7517;48.400;11.770;2023-11-22T06:22:52;9.20;74.40
14850;DHT22;7517;48.400;11.770;2023-11-22T06:25:21;9.30;74.50
14850;DHT22;7517;48.400;11.770;2023-11-22T06:27:49;9.20;74.20
14850;DHT22;7517;48.400;11.770;2023-11-22T06:30:16;9.20;74.20
14850;DHT22;7517;48.400;11.770;2023-11-22T06:32:43;9.20;74.20
14850;DHT22;7517;48.400;11.770;2023-11-22T06:35:11;9.30;74.40
14850;DHT22;7517;48.400;11.770;2023-11-22T06:37:40;9.20;74.20
14850;DHT22;7517;48.400;11.770;2023-11-22T06:40:08;9.20;74.50
14850;DHT22;7517;48.400;11.770;2023-11-22T06:42:39;9.20;74.80
14850;DHT22;7517;48.400;11.770;2023-11-22T06:45:09;9.30;75.20
14850;DHT22;7517;48.400;11.770;2023-11-22T06:47:38;9.30;75.30
14850;DHT22;7517;48.400;11.770;2023-11-22T06:50:06;9.40;75.40
14850;DHT22;7517;48.400;11.770;2023-11-22T06:52:36;9.40;75.10
14850;DHT22;7517;48.400;11.770;2023-11-22T06:55:04;9.40;74.80
14850;DHT22;7517;48.400;11.770;2023-11-22T06:57:33;9.50;74.60
14850;DHT22;7517;48.400;11.770;2023-11-22T07:00:02;9.50;74.40
14850;DHT22;7517;48.400;11.770;2023-11-22T07:02:31;9.50;74.10
14850;DHT22;7517;48.400;11.770;2023-11-22T07:04:58;9.50;74.20
14850;DHT22;7517;48.400;11.770;2023-11-22T07:07:26;9.60;74.00
14850;DHT22;7517;48.400;11.770;2023-11-22T07:09:53;9.60;74.10
14850;DHT22;7517;48.400;11.770;2023-11-22T07:12:22;9.60;74.30
14850;DHT22;7517;48.400;11.770;2023-11-22T07:14:49;9.60;74.30
14850;DHT22;7517;48.400;11.770;2023-11-22T07:17:18;9.60;74.10
14850;DHT22;7517;48.400;11.770;2023-11-22T07:19:47;9.60;74.40
14850;DHT22;7517;48.400;11.770;2023-11-22T07:22:14;9.60;73.60
14850;DHT22;7517;48.400;11.770;2023-11-22T07:24:48;9.70;73.80
14850;DHT22;7517;48.400;11.770;2023-11-22T07:27:17;9.60;74.00
14850;DHT22;7517;48.400;11.770;2023-11-22T07:29:45;9.60;73.80
14850;DHT22;7517;48.400;11.770;2023-11-22T07:32:13;9.60;74.00
14850;DHT22;7517;48.400;11.770;2023-11-22T07:34:42;9.70;73.80
14850;DHT22;7517;48.400;11.770;2023-11-22T07:37:09;9.60;74.20
14850;DHT22;7517;48.400;11.770;2023-11-22T07:39:38;9.60;73.70
14850;DHT22;7517;48.400;11.770;2023-11-22T07:42:06;9.60;74.60
14850;DHT22;7517;48.400;11.770;2023-11-22T07:44:34;9.60;73.90
14850;DHT22;7517;48.400;11.770;2023-11-22T07:47:03;9.60;73.80
14850;DHT22;7517;48.400;11.770;2023-11-22T07:49:33;9.60;73.60
14850;DHT22;7517;48.400;11.770;2023-11-22T07:52:04;9.60;73.40
14850;DHT22;7517;48.400;11.770;2023-11-22T07:54:32;9.60;73.40
14850;DHT22;7517;48.400;11.770;2023-11-22T07:57:01;9.70;73.80
14850;DHT22;7517;48.400;11.770;2023-11-22T07:59:28;9.60;73.50
14850;DHT22;7517;48.400;11.770;2023-11-22T08:01:56;9.50;73.40
14850;DHT22;7517;48.400;11.770;2023-11-22T08:04:27;9.50;73.40
14850;DHT22;7517;48.400;11.770;2023-11-22T08:06:57;9.50;73.40
14850;DHT22;7517;48.400;11.770;2023-11-22T08:09:28;9.50;73.60
14850;DHT22;7517;48.400;11.770;2023-11-22T08:11:58;9.50;73.70
14850;DHT22;7517;48.400;11.770;2023-11-22T08:14:26;9.50;73.60
14850;DHT22;7517;48.400;11.770;2023-11-22T08:16:54;9.40;73.20
14850;DHT22;7517;48.400;11.770;2023-11-22T08:19:21;9.40;73.60
14850;DHT22;7517;48.400;11.770;2023-11-22T08:21:50;9.40;73.70
14850;DHT22;7517;48.400;11.770;2023-11-22T08:24:18;9.40;73.70
14850;DHT22;7517;48.400;11.770;2023-11-22T08:26:46;9.40;73.50
14850;DHT22;7517;48.400;11.770;2023-11-22T08:29:14;9.40;73.80
14850;DHT22;7517;48.400;11.770;2023-11-22T08:31:41;9.40;74.20
14850;DHT22;7517;48.400;11.770;2023-11-22T08:34:08;9.40;74.30
14850;DHT22;7517;48.400;11.770;2023-11-22T08:36:37;9.40;74.00
14850;DHT22;7517;48.400;11.770;2023-11-22T08:39:04;9.40;74.10
14850;DHT22;7517;48.400;11.770;2023-11-22T08:41:33;9.40;74.20
14850;DHT22;7517;48.400;11.770;2023-11-22T08:44:02;9.50;73.90
14850;DHT22;7517;48.400;11.770;2023-11-22T08:46:32;9.50;73.70
14850;DHT22;7517;48.400;11.770;2023-11-22T08:48:59;9.50;73.70
14850;DHT22;7517;48.400;11.770;2023-11-22T08:51:27;9.50;73.50
14850;DHT22;7517;48.400;11.770;2023-11-22T08:53:55;9.60;73.20
14850;DHT22;7517;48.400;11.770;2023-11-22T08:56:22;9.50;72.90
14850;DHT22;7517;48.400;11.770;2023-11-22T08:58:50;9.50;72.80
14850;DHT22;7517;48.400;11.770;2023-11-22T09:01:19;9.50;72.60
14850;DHT22;7517;48.400;11.770;2023-11-22T09:03:47;9.50;72.30
14850;DHT22;7517;48.400;11.770;2023-11-22T09:06:16;9.50;72.30
14850;DHT22;7517;48.400;11.770;2023-11-22T09:08:44;9.50;72.40
14850;DHT22;7517;48.400;11.770;2023-11-22T09:11:14;9.40;73.00
14850;DHT22;7517;48.400;11.770;2023-11-22T09:13:45;9.40;73.20
14850;DHT22;7517;48.400;11.770;2023-11-22T09:16:13;9.50;73.30
14850;DHT22;7517;48.400;11.770;2023-11-22T09:18:43;9.50;73.10
14850;DHT22;7517;48.400;11.770;2023-11-22T09:21:11;9.50;73.00
14850;DHT22;7517;48.400;11.770;2023-11-22T09:23:38;9.50;73.00
14850;DHT22;7517;48.400;11.770;2023-11-22T09:26:06;9.50;72.90
14850;DHT22;7517;48.400;11.770;2023-11-22T09:28:33;9.50;72.50
14850;DHT22;7517;48.400;11.770;2023-11-22T09:31:01;9.50;72.70
14850;DHT22;7517;48.400;11.770;2023-11-22T09:33:32;9.60;72.70
14850;DHT22;7517;48.400;11.770;2023-11-22T09:36:00;9.60;72.70
14850;DHT22;7517;48.400;11.770;2023-11-22T09:38:29;9.60;72.60
14850;DHT22;7517;48.400;11.770;2023-11-22T09:40:57;9.60;72.70
14850;DHT22;7517;48.400;11.770;2023-11-22T09:43:26;9.60;72.60
14850;DHT22;7517;48.400;11.770;2023-11-22T09:45:54;9.60;72.30
14850;DHT22;7517;48.400;11.770;2023-11-22T09:48:23;9.60;72.60
14850;DHT22;7517;48.400;11.770;2023-11-22T09:50:57;9.60;72.10
14850;DHT22;7517;48.400;11.770;2023-11-22T09:53:32;9.60;71.90
14850;DHT22;7517;48.400;11.770;2023-11-22T09:56:02;9.70;72.00
14850;DHT22;7517;48.400;11.770;2023-11-22T09:58:34;9.60;72.10
14850;DHT22;7517;48.400;11.770;2023-11-22T10:01:03;9.60;72.10
14850;DHT22;7517;48.400;11.770;2023-11-22T10:03:31;9.70;72.60
14850;DHT22;7517;48.400;11.770;2023-11-22T10:05:58;9.70;73.70
14850;DHT22;7517;48.400;11.770;2023-11-22T10:08:31;9.70;73.20
14850;DHT22;7517;48.400;11.770;2023-11-22T10:11:01;9.80;73.10
14850;DHT22;7517;48.400;11.770;2023-11-22T10:13:29;9.80;72.90
14850;DHT22;7517;48.400;11.770;2023-11-22T10:16:09;9.90;72.90
14850;DHT22;7517;48.400;11.770;2023-11-22T10:18:40;9.90;72.10
14850;DHT22;7517;48.400;11.770;2023-11-22T10:21:19;9.90;72.40
14850;DHT22;7517;48.400;11.770;2023-11-22T10:23:49;9.90;71.70
14850;DHT22;7517;48.400;11.770;2023-11-22T10:26:18;9.90;72.10
14850;DHT22;7517;48.400;11.770;2023-11-22T10:28:46;9.90;72.10
14850;DHT22;7517;48.400;11.770;2023-11-22T10:31:13;10.00;72.10
14850;DHT22;7517;48.400;11.770;2023-11-22T10:33:42;10.00;72.20
14850;DHT22;7517;48.400;11.770;2023-11-22T10:36:10;10.00;72.10
14850;DHT22;7517;48.400;11.770;2023-11-22T10:38:38;10.00;71.90
14850;DHT22;7517;48.400;11.770;2023-11-22T10:41:08;10.00;71.70
14850;DHT22;7517;48.400;11.770;2023-11-22T10:43:37;10.00;71.50
14850;DHT22;7517;48.400;11.770;2023-11-22T10:46:05;10.00;71.80
14850;DHT22;7517;48.400;11.770;2023-11-22T10:48:35;10.00;71.70
14850;DHT22;7517;48.400;11.770;2023-11-22T10:51:03;10.10;71.90
14850;DHT22;7517;48.400;11.770;2023-11-22T10:53:33;10.10;72.00
14850;DHT22;7517;48.400;11.770;2023-11-22T10:56:05;10.10;71.90
14850;DHT22;7517;48.400;11.770;2023-11-22T10:58:45;10.10;72.10
14850;DHT22;7517;48.400;11.770;2023-11-22T11:01:15;10.10;72.00
14850;DHT22;7517;48.400;11.770;2023-11-22T11:03:46;10.10;72.00
14850;DHT22;7517;48.400;11.770;2023-11-22T11:06:24;10.10;72.00
14850;DHT22;7517;48.400;11.770;2023-11-22T11:08:59;10.10;71.90
14850;DHT22;7517;48.400;11.770;2023-11-22T11:11:32;10.10;71.80
14850;DHT22;7517;48.400;11.770;2023-11-22T11:14:02;10.10;71.80
14850;DHT22;7517;48.400;11.770;2023-11-22T11:16:34;10.10;71.90
14850;DHT22;7517;48.400;11.770;2023-11-22T11:19:04;10.10;71.80
14850;DHT22;7517;48.400;11.770;2023-11-22T11:21:33;10.20;71.80
14850;DHT22;7517;48.400;11.770;2023-11-22T11:24:00;10.20;72.60
14850;DHT22;7517;48.400;11.770;2023-11-22T11:26:33;10.20;71.60
14850;DHT22;7517;48.400;11.770;2023-11-22T11:29:02;10.20;71.40
14850;DHT22;7517;48.400;11.770;2023-11-22T11:31:32;10.20;71.30
14850;DHT22;7517;48.400;11.770;2023-11-22T11:34:02;10.20;70.90
14850;DHT22;7517;48.400;11.770;2023-11-22T11:36:32;10.30;70.90
14850;DHT22;7517;48.400;11.770;2023-11-22T11:39:06;10.20;70.80
14850;DHT22;7517;48.400;11.770;2023-11-22T11:41:42;10.30;71.10
14850;DHT22;7517;48.400;11.770;2023-11-22T11:44:13;10.30;71.20
14850;DHT22;7517;48.400;11.770;2023-11-22T11:46:40;10.30;71.30
14850;DHT22;7517;48.400;11.770;2023-11-22T11:49:08;10.30;71.40
14850;DHT22;7517;48.400;11.770;2023-11-22T11:51:40;10.30;71.30
14850;DHT22;7517;48.400;11.770;2023-11-22T11:54:08;10.40;70.90
14850;DHT22;7517;48.400;11.770;2023-11-22T11:56:37;10.30;70.80
14850;DHT22;7517;48.400;11.770;2023-11-22T11:59:06;10.40;71.20
14850;DHT22;7517;48.400;11.770;2023-11-22T12:01:35;10.40;70.60
14850;DHT22;7517;48.400;11.770;2023-11-22T12:04:03;10.30;70.40
14850;DHT22;7517;48.400;11.770;2023-11-22T12:06:30;10.40;70.50
14850;DHT22;7517;48.400;11.770;2023-11-22T12:09:00;10.30;70.60
14850;DHT22;7517;48.400;11.770;2023-11-22T12:11:29;10.30;70.70
14850;DHT22;7517;48.400;11.770;2023-11-22T12:13:57;10.30;70.70
14850;DHT22;7517;48.400;11.770;2023-11-22T12:16:26;10.40;70.70
14850;DHT22;7517;48.400;11.770;2023-11-22T12:18:54;10.40;70.30
14850;DHT22;7517;48.400;11.770;2023-11-22T12:21:24;10.40;70.20
14850;DHT22;7517;48.400;11.770;2023-11-22T12:23:52;10.40;70.30
14850;DHT22;7517;48.400;11.770;2023-11-22T12:26:21;10.40;70.20
14850;DHT22;7517;48.400;11.770;2023-11-22T12:28:49;10.40;70.50
14850;DHT22;7517;48.400;11.770;2023-11-22T12:31:18;10.40;70.30
14850;DHT22;7517;48.400;11.770;2023-11-22T12:33:47;10.40;70.10
14850;DHT22;7517;48.400;11.770;2023-11-22T12:36:15;10.40;70.00
14850;DHT22;7517;48.400;11.770;2023-11-22T12:38:43;10.30;69.90
14850;DHT22;7517;48.400;11.770;2023-11-22T12:41:10;10.30;70.20
14850;DHT22;7517;48.400;11.770;2023-11-22T12:43:37;10.40;70.40
14850;DHT22;7517;48.400;11.770;2023-11-22T12:46:06;10.40;70.00
14850;DHT22;7517;48.400;11.770;2023-11-22T12:48:37;10.40;69.60
14850;DHT22;7517;48.400;11.770;2023-11-22T12:51:14;10.40;69.70
14850;DHT22;7517;48.400;11.770;2023-11-22T12:53:42;10.40;68.70
14850;DHT22;7517;48.400;11.770;2023-11-22T12:56:12;10.40;69.30
14850;DHT22;7517;48.400;11.770;2023-11-22T12:58:39;10.30;69.00
14850;DHT22;7517;48.400;11.770;2023-11-22T13:01:06;10.30;69.00
14850;DHT22;7517;48.400;11.770;2023-11-22T13:03:34;10.30;69.00
14850;DHT22;7517;48.400;11.770;2023-11-22T13:06:01;10.20;69.20
14850;DHT22;7517;48.400;11.770;2023-11-22T13:08:30;10.20;69.60
14850;DHT22;7517;48.400;11.770;2023-11-22T13:10:58;10.20;69.50
14850;DHT22;7517;48.400;11.770;2023-11-22T13:13:27;10.20;69.50
14850;DHT22;7517;48.400;11.770;2023-11-22T13:15:56;10.20;69.10
14850;DHT22;7517;48.400;11.770;2023-11-22T13:18:24;10.20;69.30
14850;DHT22;7517;48.400;11.770;2023-11-22T13:20:52;10.20;69.60
14850;DHT22;7517;48.400;11.770;2023-11-22T13:23:19;10.20;69.30
14850;DHT22;7517;48.400;11.770;2023-11-22T13:25:48;10.20;69.10
14850;DHT22;7517;48.400;11.770;2023-11-22T13:28:15;10.10;69.10
14850;DHT22;7517;48.400;11.770;2023-11-22T13:30:42;10.10;69.40
14850;DHT22;7517;48.400;11.770;2023-11-22T13:33:09;10.20;69.20
14850;DHT22;7517;48.400;11.770;2023-11-22T13:35:37;10.10;69.00
14850;DHT22;7517;48.400;11.770;2023-11-22T13:38:04;10.10;68.90
14850;DHT22;7517;48.400;11.770;2023-11-22T13:40:36;10.10;68.60
14850;DHT22;7517;48.400;11.770;2023-11-22T13:43:07;10.10;68.90
14850;DHT22;7517;48.400;11.770;2023-11-22T13:45:35;10.10;69.20
14850;DHT22;7517;48.400;11.770;2023-11-22T13:48:05;10.10;69.30
14850;DHT22;7517;48.400;11.770;2023-11-22T13:50:35;10.10;69.30
14850;DHT22;7517;48.400;11.770;2023-11-22T13:53:02;10.10;69.80
14850;DHT22;7517;48.400;11.770;2023-11-22T13:55:30;10.10;69.80
14850;DHT22;7517;48.400;11.770;2023-11-22T13:58:00;10.10;69.70
14850;DHT22;7517;48.400;11.770;2023-11-22T14:00:30;10.10;69.50
14850;DHT22;7517;48.400;11.770;2023-11-22T14:03:01;10.10;69.70
14850;DHT22;7517;48.400;11.770;2023-11-22T14:05:33;10.10;70.00
14850;DHT22;7517;48.400;11.770;2023-11-22T14:08:04;10.10;70.40
14850;DHT22;7517;48.400;11.770;2023-11-22T14:10:32;10.10;70.60
14850;DHT22;7517;48.400;11.770;2023-11-22T14:12:59;10.10;70.70
14850;DHT22;7517;48.400;11.770;2023-11-22T14:15:30;10.10;70.80
14850;DHT22;7517;48.400;11.770;2023-11-22T14:17:57;10.10;70.80
14850;DHT22;7517;48.400;11.770;2023-11-22T14:20:25;10.10;70.90
14850;DHT22;7517;48.400;11.770;2023-11-22T14:22:52;10.10;70.80
14850;DHT22;7517;48.400;11.770;2023-11-22T14:25:20;10.10;70.40
14850;DHT22;7517;48.400;11.770;2023-11-22T14:27:48;10.10;70.20
14850;DHT22;7517;48.400;11.770;2023-11-22T14:30:18;10.10;69.80
14850;DHT22;7517;48.400;11.770;2023-11-22T14:32:48;10.00;69.50
14850;DHT22;7517;48.400;11.770;2023-11-22T14:35:18;10.00;69.60
14850;DHT22;7517;48.400;11.770;2023-11-22T14:37:46;9.90;69.90
14850;DHT22;7517;48.400;11.770;2023-11-22T14:40:13;9.90;69.90
14850;DHT22;7517;48.400;11.770;2023-11-22T14:42:41;9.90;69.80
14850;DHT22;7517;48.400;11.770;2023-11-22T14:45:10;9.90;69.60
14850;DHT22;7517;48.400;11.770;2023-11-22T14:47:38;9.90;69.50
14850;DHT22;7517;48.400;11.770;2023-11-22T14:50:09;9.80;69.60
14850;DHT22;7517;48.400;11.770;2023-11-22T14:52:37;9.80;69.60
14850;DHT22;7517;48.400;11.770;2023-11-22T14:55:06;9.80;69.60
14850;DHT22;7517;48.400;11.770;2023-11-22T14:57:39;9.70;69.50
14850;DHT22;7517;48.400;11.770;2023-11-22T15:00:09;9.70;69.30
14850;DHT22;7517;48.400;11.770;2023-11-22T15:02:39;9.70;69.60
14850;DHT22;7517;48.400;11.770;2023-11-22T15:05:09;9.60;70.20
14850;DHT22;7517;48.400;11.770;2023-11-22T15:07:38;9.60;69.60
14850;DHT22;7517;48.400;11.770;2023-11-22T15:10:08;9.60;69.70
14850;DHT22;7517;48.400;11.770;2023-11-22T15:12:36;9.50;69.50
14850;DHT22;7517;48.400;11.770;2023-11-22T15:15:06;9.50;69.60
14850;DHT22;7517;48.400;11.770;2023-11-22T15:17:34;9.40;69.70
14850;DHT22;7517;48.400;11.770;2023-11-22T15:20:01;9.40;70.10
14850;DHT22;7517;48.400;11.770;2023-11-22T15:22:32;9.40;70.20
14850;DHT22;7517;48.400;11.770;2023-11-22T15:25:00;9.40;70.20
14850;DHT22;7517;48.400;11.770;2023-11-22T15:27:30;9.40;70.60
14850;DHT22;7517;48.400;11.770;2023-11-22T15:29:57;9.40;70.80
14850;DHT22;7517;48.400;11.770;2023-11-22T15:32:24;9.30;70.80
14850;DHT22;7517;48.400;11.770;2023-11-22T15:34:52;9.40;71.10
14850;DHT22;7517;48.400;11.770;2023-11-22T15:37:19;9.30;70.80
14850;DHT22;7517;48.400;11.770;2023-11-22T15:39:48;9.30;70.80
14850;DHT22;7517;48.400;11.770;2023-11-22T15:42:15;9.30;70.80
14850;DHT22;7517;48.400;11.770;2023-11-22T15:44:43;9.30;70.80
14850;DHT22;7517;48.400;11.770;2023-11-22T15:47:10;9.30;71.00